Des Peres, Missouri
Current Conditions -  °F | °C
As of 9:51 PM on Saturday 22 Nov 2014 (Local Time) from KSTL Reporting Station
Light Rain Light Rain  
Wind Chill: 55°   Ceiling: 8500
Heat Index: 55°   Visibility: 9mi
Dew Point: 50°   Wind: 8mph
Humidity: 83%   Direction: 180°S
Pressure: 29.9"   Gusts: NA
Location:  38.5796°N, 90.4197°W
Report Text: KSTL 230351Z 18007KT 9SM -RA FEW018 OVC085 13/10 A2990 RMK AO2 SLP123 P0000 T01280100
Loading
Personal Weather Stations






























Interactive Weather Map New forecast layout! Learn more

10-Day Weather Forecast

Advertisements
Track Severe Weather on mobile